Time;durP1;ratioP1;P1;durP2;ratioP2;P2;SDS_P1;SDS_P2;PMS_P1;PMS_P2;Temp;Humidity;BMP_temperature;BMP_pressure;BME280_temperature;BME280_humidity;BME280_pressure;Samples;Min_cycle;Max_cycle;Signal;HPM_P1;HPM_P2
2022/11/06 00:00:34;;;;;;;2.20;0.90;;;;;;;24.23;nan;99519.53;5089277;28;20032;-61
2022/11/06 00:03:00;;;;;;;1.40;0.90;;;;;;;24.25;nan;99524.72;5083241;28;20047;-64
2022/11/06 00:08:12;;;;;;;1.83;1.00;;;;;;;24.25;nan;99528.31;5089887;28;20130;-63
2022/11/06 00:10:37;;;;;;;1.48;0.90;;;;;;;24.23;nan;99529.91;5074643;28;20072;-63
2022/11/06 00:13:03;;;;;;;2.35;0.80;;;;;;;24.25;nan;99530.31;5083170;28;20103;-61
2022/11/06 00:15:28;;;;;;;1.83;0.90;;;;;;;24.25;nan;99521.94;5051410;28;20036;-61
2022/11/06 00:17:54;;;;;;;1.23;0.80;;;;;;;24.23;nan;99515.94;5069667;28;20040;-61
2022/11/06 00:20:19;;;;;;;1.15;0.80;;;;;;;24.23;nan;99513.94;5069122;28;20052;-62
2022/11/06 00:22:45;;;;;;;1.23;0.80;;;;;;;24.22;nan;99519.91;5069258;28;20539;-63
2022/11/06 00:25:11;;;;;;;1.90;0.88;;;;;;;24.23;nan;99524.31;5069306;28;20040;-60
2022/11/06 00:27:38;;;;;;;0.73;0.60;;;;;;;24.25;nan;99528.31;5061438;28;20159;-60
2022/11/06 00:30:08;;;;;;;1.42;0.88;;;;;;;24.24;nan;99528.72;5039233;28;20033;-61
2022/11/06 00:32:34;;;;;;;1.00;0.70;;;;;;;24.22;nan;99515.16;5041072;28;20037;-63
2022/11/06 00:35:00;;;;;;;1.50;0.80;;;;;;;24.24;nan;99520.34;5066062;28;20063;-60
2022/11/06 00:37:25;;;;;;;1.75;0.80;;;;;;;24.25;nan;99516.34;5062639;28;20496;-64
2022/11/06 00:39:50;;;;;;;1.02;0.70;;;;;;;24.23;nan;99505.56;5046395;28;20084;-62
2022/11/06 00:42:16;;;;;;;1.60;0.82;;;;;;;24.20;nan;99503.53;5037655;28;20136;-63
2022/11/06 00:44:41;;;;;;;1.02;0.82;;;;;;;24.25;nan;99513.53;5056809;28;20127;-61
2022/11/06 00:47:07;;;;;;;1.20;0.75;;;;;;;24.27;nan;99511.13;5068775;28;20040;-61
2022/11/06 00:49:32;;;;;;;1.20;0.70;;;;;;;24.29;nan;99514.34;5068820;28;20036;-61
2022/11/06 00:51:58;;;;;;;1.63;1.00;;;;;;;24.29;nan;99508.75;5067653;28;20518;-61
2022/11/06 00:54:23;;;;;;;1.08;0.70;;;;;;;24.30;nan;99519.56;5041378;28;20044;-63
2022/11/06 00:56:49;;;;;;;1.33;0.90;;;;;;;24.28;nan;99518.31;5060031;28;20487;-60
2022/11/06 00:59:14;;;;;;;1.55;0.90;;;;;;;24.26;nan;99513.13;5034654;28;20049;-64
2022/11/06 01:01:42;;;;;;;1.50;0.93;;;;;;;24.28;nan;99501.56;5048487;28;20043;-63
2022/11/06 01:04:17;;;;;;;1.48;0.80;;;;;;;24.28;nan;99504.34;5068301;28;20067;-60
2022/11/06 01:06:46;;;;;;;1.50;0.90;;;;;;;24.29;nan;99505.94;5068695;28;20047;-63
2022/11/06 01:09:15;;;;;;;3.17;0.90;;;;;;;24.28;nan;99516.31;5068566;28;20094;-60
2022/11/06 01:11:47;;;;;;;1.73;1.10;;;;;;;24.27;nan;99511.94;5068778;28;20052;-60
2022/11/06 01:14:14;;;;;;;1.02;0.70;;;;;;;24.27;nan;99516.72;5067970;28;20051;-63
2022/11/06 01:16:42;;;;;;;1.30;0.75;;;;;;;24.25;nan;99505.94;5068729;28;20082;-64
2022/11/06 01:19:09;;;;;;;1.60;0.95;;;;;;;24.26;nan;99501.97;5068675;28;20572;-63
2022/11/06 01:21:38;;;;;;;1.00;0.70;;;;;;;24.27;nan;99502.75;5061887;28;20501;-60
2022/11/06 01:24:15;;;;;;;1.40;0.90;;;;;;;24.25;nan;99503.16;5057670;28;20033;-63
2022/11/06 01:26:41;;;;;;;1.35;0.90;;;;;;;24.27;nan;99502.75;5067303;28;20047;-63
2022/11/06 01:29:09;;;;;;;1.60;0.82;;;;;;;24.24;nan;99484.00;5058514;28;20041;-63
2022/11/06 01:31:35;;;;;;;1.52;0.93;;;;;;;24.25;nan;99494.78;5058803;28;20103;-63
2022/11/06 01:34:01;;;;;;;2.13;0.90;;;;;;;24.25;nan;99494.78;5056223;28;20037;-63
2022/11/06 01:36:29;;;;;;;1.00;0.73;;;;;;;24.25;nan;99496.78;5045635;28;20049;-64
2022/11/06 01:38:56;;;;;;;1.50;0.82;;;;;;;24.24;nan;99484.78;5063941;28;20045;-62
2022/11/06 01:41:29;;;;;;;1.10;0.80;;;;;;;24.25;nan;99478.00;5052298;28;20558;-59
2022/11/06 01:43:58;;;;;;;1.67;0.95;;;;;;;24.25;nan;99480.00;5051286;28;20033;-59
2022/11/06 01:46:30;;;;;;;1.75;1.00;;;;;;;24.23;nan;99476.81;5054823;28;20052;-59
2022/11/06 01:49:06;;;;;;;1.35;0.77;;;;;;;24.25;nan;99480.00;5054522;28;20041;-60
2022/11/06 01:51:36;;;;;;;1.45;0.80;;;;;;;24.24;nan;99472.81;5066656;28;20067;-63
2022/11/06 01:54:05;;;;;;;1.20;0.77;;;;;;;24.24;nan;99468.03;5050936;28;20044;-63
2022/11/06 01:56:31;;;;;;;1.38;0.80;;;;;;;24.23;nan;99465.63;5031145;28;20064;-60
2022/11/06 01:58:58;;;;;;;2.97;0.90;;;;;;;24.24;nan;99468.03;5042144;28;20403;-63
2022/11/06 02:01:24;;;;;;;2.13;0.90;;;;;;;24.24;nan;99464.44;5053731;28;20631;-63
2022/11/06 02:03:57;;;;;;;1.20;0.75;;;;;;;24.26;nan;99464.81;5043638;28;20045;-63
2022/11/06 02:06:24;;;;;;;1.52;1.00;;;;;;;24.25;nan;99466.03;5044022;28;20048;-64
2022/11/06 02:08:50;;;;;;;0.98;0.70;;;;;;;24.24;nan;99464.44;5063171;28;20052;-60
2022/11/06 02:11:15;;;;;;;1.88;0.85;;;;;;;24.25;nan;99466.03;5065346;28;20048;-60
2022/11/06 02:13:49;;;;;;;1.17;0.70;;;;;;;24.22;nan;99450.84;5067969;28;20102;-60
2022/11/06 02:16:25;;;;;;;1.20;0.70;;;;;;;24.24;nan;99450.44;5063300;28;20059;-60
2022/11/06 02:19:07;;;;;;;1.65;0.82;;;;;;;24.23;nan;99455.25;5057642;28;20053;-60
2022/11/06 02:21:54;;;;;;;1.25;0.82;;;;;;;24.23;nan;99448.84;5045240;28;20049;-64
2022/11/06 02:24:44;;;;;;;1.38;0.63;;;;;;;24.23;nan;99434.88;5054717;28;20080;-61
2022/11/06 02:27:18;;;;;;;0.85;0.60;;;;;;;24.22;nan;99441.66;5059285;28;20032;-61
2022/11/06 02:30:12;;;;;;;1.00;0.70;;;;;;;24.21;nan;99431.66;5064922;28;20086;-60
2022/11/06 02:32:40;;;;;;;1.20;0.70;;;;;;;24.23;nan;99429.28;5060757;28;20084;-63
2022/11/06 02:35:46;;;;;;;1.50;0.85;;;;;;;24.21;nan;99428.88;5052069;28;20077;-64
2022/11/06 02:38:17;;;;;;;1.58;0.90;;;;;;;24.21;nan;99426.88;5037553;28;20102;-62
2022/11/06 02:40:48;;;;;;;1.77;1.02;;;;;;;24.19;nan;99420.88;5052670;28;20028;-64
2022/11/06 02:43:15;;;;;;;2.28;0.82;;;;;;;24.21;nan;99426.06;5038742;28;20128;-61
2022/11/06 02:45:54;;;;;;;1.23;0.93;;;;;;;24.19;nan;99426.47;5031315;28;20498;-62
2022/11/06 02:48:26;;;;;;;1.40;0.90;;;;;;;24.21;nan;99414.91;5054138;28;20040;-61
2022/11/06 02:50:57;;;;;;;1.65;0.80;;;;;;;24.21;nan;99418.50;5050679;28;20052;-61
2022/11/06 02:53:25;;;;;;;1.50;0.80;;;;;;;24.22;nan;99422.09;5039536;28;20049;-61
2022/11/06 02:55:55;;;;;;;0.90;0.70;;;;;;;24.20;nan;99419.69;5051438;28;20045;-61
2022/11/06 02:58:29;;;;;;;1.33;0.80;;;;;;;24.21;nan;99418.50;5036419;28;20095;-64
2022/11/06 03:01:03;;;;;;;1.25;0.80;;;;;;;24.20;nan;99413.31;5046281;28;20048;-64
2022/11/06 03:03:35;;;;;;;1.20;0.90;;;;;;;24.21;nan;99423.28;5040205;28;20046;-64
2022/11/06 03:06:19;;;;;;;1.50;0.93;;;;;;;24.21;nan;99414.91;5034942;28;20081;-61
2022/11/06 03:08:54;;;;;;;1.35;0.88;;;;;;;24.22;nan;99413.69;5059112;28;20050;-65
2022/11/06 03:11:24;;;;;;;1.58;0.90;;;;;;;24.20;nan;99416.91;5061136;28;20048;-63
2022/11/06 03:13:57;;;;;;;1.52;0.82;;;;;;;24.20;nan;99413.31;5067853;28;20044;-63
2022/11/06 03:16:33;;;;;;;1.40;0.80;;;;;;;24.19;nan;99409.72;5059515;28;20045;-63
2022/11/06 03:19:05;;;;;;;1.17;0.70;;;;;;;24.21;nan;99409.31;5053340;28;20100;-63
2022/11/06 03:21:46;;;;;;;1.10;0.80;;;;;;;24.21;nan;99412.09;5066993;28;20049;-60
2022/11/06 03:24:23;;;;;;;1.00;0.70;;;;;;;24.16;nan;99405.72;5058999;28;20047;-60
2022/11/06 03:26:51;;;;;;;1.50;0.70;;;;;;;24.19;nan;99414.50;5063280;28;20127;-61
2022/11/06 03:29:33;;;;;;;2.92;0.80;;;;;;;24.19;nan;99420.88;5066630;28;20056;-64
2022/11/06 03:32:43;;;;;;;1.35;0.80;;;;;;;24.19;nan;99418.09;5046381;28;20412;-64
2022/11/06 03:35:18;;;;;;;1.70;0.90;;;;;;;24.19;nan;99408.91;4997539;28;20057;-61
2022/11/06 03:38:10;;;;;;;1.08;0.70;;;;;;;24.19;nan;99403.31;5000861;28;20080;-61
2022/11/06 03:40:42;;;;;;;1.48;0.90;;;;;;;24.19;nan;99397.75;5005566;28;20541;-61
2022/11/06 03:43:13;;;;;;;1.65;0.90;;;;;;;24.19;nan;99397.75;5006882;28;20054;-63
2022/11/06 03:45:42;;;;;;;1.50;0.80;;;;;;;24.18;nan;99394.16;4997465;28;20438;-61
2022/11/06 03:48:19;;;;;;;1.30;0.82;;;;;;;24.16;nan;99396.53;5014497;28;20100;-64
2022/11/06 03:51:03;;;;;;;1.20;0.70;;;;;;;24.19;nan;99406.13;5016762;28;20050;-64
2022/11/06 03:53:48;;;;;;;1.23;0.75;;;;;;;24.18;nan;99399.72;5006249;28;20569;-61
2022/11/06 03:56:25;;;;;;;2.95;0.75;;;;;;;24.13;nan;99406.50;5001422;28;20167;-64
2022/11/06 03:58:52;;;;;;;1.20;0.80;;;;;;;24.17;nan;99418.50;5006728;28;20548;-63
2022/11/06 04:01:22;;;;;;;0.60;0.50;;;;;;;24.16;nan;99416.91;5005102;28;20454;-62
2022/11/06 04:03:54;;;;;;;1.30;0.80;;;;;;;24.16;nan;99410.53;5004491;28;20062;-62
2022/11/06 04:06:31;;;;;;;1.08;0.70;;;;;;;24.17;nan;99415.72;4999714;28;20037;-62
2022/11/06 04:14:35;;;;;;;1.30;0.70;;;;;;;24.22;nan;99420.13;5034964;28;20052;-60
2022/11/06 04:17:06;;;;;;;1.35;0.70;;;;;;;24.21;nan;99435.25;5060615;28;20566;-60
2022/11/06 04:19:31;;;;;;;0.77;0.60;;;;;;;24.22;nan;99442.47;5058108;28;20509;-63
2022/11/06 04:22:04;;;;;;;1.38;0.73;;;;;;;24.22;nan;99444.44;5042323;28;20047;-63
2022/11/06 04:27:30;;;;;;;1.38;0.82;;;;;;;24.21;nan;99442.84;5036827;28;20460;-63
2022/11/06 04:29:58;;;;;;;0.85;0.70;;;;;;;24.21;nan;99440.06;5057514;28;20131;-60
2022/11/06 04:32:52;;;;;;;1.38;0.80;;;;;;;24.19;nan;99442.44;5054530;28;20072;-61
2022/11/06 04:35:17;;;;;;;;;;;;;;;24.24;nan;99433.69;5070084;28;20527;-61
2022/11/06 04:37:50;;;;;;;0.67;0.50;;;;;;;24.23;nan;99429.28;5068543;28;19916;-61
2022/11/06 04:40:41;;;;;;;1.00;0.68;;;;;;;24.20;nan;99418.91;5065841;28;20275;-64
2022/11/06 04:43:25;;;;;;;1.40;0.70;;;;;;;24.17;nan;99424.09;5061722;28;20071;-61
2022/11/06 04:45:54;;;;;;;1.20;0.80;;;;;;;24.16;nan;99430.88;5068693;28;20052;-61
2022/11/06 04:48:22;;;;;;;0.82;0.60;;;;;;;24.16;nan;99418.91;5068295;28;20055;-63
2022/11/06 04:51:00;;;;;;;1.00;0.60;;;;;;;24.16;nan;99414.13;5068830;28;20080;-61
2022/11/06 04:53:29;;;;;;;0.65;0.60;;;;;;;24.17;nan;99409.31;5068860;28;20047;-64
2022/11/06 04:56:00;;;;;;;1.05;0.70;;;;;;;24.16;nan;99402.94;5045377;28;20061;-61
2022/11/06 04:58:26;;;;;;;0.90;0.68;;;;;;;24.16;nan;99405.72;5060460;28;20057;-61
2022/11/06 05:00:51;;;;;;;0.70;0.60;;;;;;;24.17;nan;99398.13;5043234;28;20065;-61
2022/11/06 05:03:17;;;;;;;0.68;0.50;;;;;;;24.15;nan;99395.75;5068910;28;20420;-59
2022/11/06 05:05:43;;;;;;;1.23;0.90;;;;;;;24.15;nan;99397.75;5069002;28;20048;-63
2022/11/06 05:08:14;;;;;;;1.00;0.50;;;;;;;24.17;nan;99392.56;5068688;28;20036;-60
2022/11/06 05:10:40;;;;;;;0.75;0.60;;;;;;;24.16;nan;99388.97;5056804;28;20048;-63
2022/11/06 05:13:06;;;;;;;0.95;0.60;;;;;;;24.17;nan;99389.75;5057469;28;20119;-64
2022/11/06 05:15:31;;;;;;;1.50;0.80;;;;;;;24.19;nan;99394.94;5068387;28;20132;-61
2022/11/06 05:17:57;;;;;;;0.68;0.60;;;;;;;24.17;nan;99386.97;5063480;28;20049;-64
2022/11/06 05:20:23;;;;;;;1.33;0.73;;;;;;;24.15;nan;99383.78;5064889;28;20041;-64
2022/11/06 05:23:01;;;;;;;1.10;0.70;;;;;;;24.15;nan;99378.97;5031161;28;20424;-64
2022/11/06 05:25:29;;;;;;;0.95;0.63;;;;;;;24.16;nan;99374.97;5052899;28;20039;-61
2022/11/06 05:27:55;;;;;;;0.95;0.55;;;;;;;24.17;nan;99373.00;5048609;28;20044;-64
2022/11/06 05:30:21;;;;;;;1.25;0.77;;;;;;;24.13;nan;99367.38;5052508;28;20186;-61
2022/11/06 05:32:47;;;;;;;1.23;0.75;;;;;;;24.16;nan;99374.19;5062335;28;20052;-61
2022/11/06 05:35:13;;;;;;;0.88;0.70;;;;;;;24.17;nan;99368.19;5055793;28;20459;-61
2022/11/06 05:37:39;;;;;;;1.00;0.73;;;;;;;24.16;nan;99358.22;5058650;28;20545;-61
2022/11/06 05:40:05;;;;;;;1.17;0.70;;;;;;;24.16;nan;99357.41;5056496;28;20442;-62
2022/11/06 05:42:30;;;;;;;1.27;0.73;;;;;;;24.17;nan;99348.63;5043177;28;20903;-64
2022/11/06 05:44:55;;;;;;;1.00;0.70;;;;;;;24.16;nan;99343.44;5050569;28;20041;-64
2022/11/06 05:47:21;;;;;;;1.02;0.65;;;;;;;24.16;nan;99332.28;5036865;28;20083;-61
2022/11/06 05:49:46;;;;;;;1.17;0.70;;;;;;;24.15;nan;99328.69;5055828;28;20433;-61
2022/11/06 05:52:11;;;;;;;1.23;0.70;;;;;;;24.15;nan;99325.88;5040699;28;20049;-60
2022/11/06 05:54:37;;;;;;;1.50;0.90;;;;;;;24.15;nan;99322.28;5045416;28;20036;-63
2022/11/06 05:57:03;;;;;;;1.10;0.70;;;;;;;24.15;nan;99320.28;5041639;28;20056;-63
2022/11/06 05:59:28;;;;;;;1.00;0.55;;;;;;;24.14;nan;99312.28;5048054;28;20052;-61
2022/11/06 06:01:54;;;;;;;1.33;0.70;;;;;;;24.15;nan;99316.72;5042861;28;20084;-64
2022/11/06 06:04:21;;;;;;;1.35;0.75;;;;;;;24.14;nan;99315.09;5071336;28;20063;-61
2022/11/06 06:06:47;;;;;;;1.52;0.80;;;;;;;24.12;nan;99306.31;5057874;28;20555;-61
2022/11/06 06:09:12;;;;;;;1.15;0.77;;;;;;;24.14;nan;99303.91;5071658;28;20037;-64
2022/11/06 06:11:37;;;;;;;1.08;0.75;;;;;;;24.15;nan;99311.91;5056088;28;20056;-61
2022/11/06 06:14:03;;;;;;;1.05;0.70;;;;;;;24.15;nan;99309.13;5048300;28;20500;-63
2022/11/06 06:16:29;;;;;;;1.45;0.80;;;;;;;24.14;nan;99303.91;5071608;28;20052;-61
2022/11/06 06:18:55;;;;;;;0.82;0.60;;;;;;;24.14;nan;99315.09;5070996;28;20500;-64
2022/11/06 06:21:20;;;;;;;1.00;0.70;;;;;;;24.12;nan;99307.09;5063767;28;20563;-64
2022/11/06 06:23:46;;;;;;;1.05;0.73;;;;;;;24.15;nan;99316.72;5047415;28;20072;-64
2022/11/06 06:26:11;;;;;;;1.08;0.70;;;;;;;24.14;nan;99312.28;5051238;28;20037;-64
2022/11/06 06:28:36;;;;;;;1.05;0.70;;;;;;;24.13;nan;99314.28;5051368;28;20061;-61
2022/11/06 06:31:04;;;;;;;1.13;0.70;;;;;;;24.14;nan;99315.09;5041430;28;20037;-65
2022/11/06 06:33:30;;;;;;;1.00;0.65;;;;;;;24.14;nan;99307.50;5054356;28;20521;-65
2022/11/06 06:35:56;;;;;;;1.02;0.70;;;;;;;24.13;nan;99302.31;5046831;28;20741;-61
2022/11/06 06:38:21;;;;;;;1.40;0.70;;;;;;;24.14;nan;99303.91;5040401;28;20098;-60
2022/11/06 06:40:46;;;;;;;0.52;0.50;;;;;;;24.13;nan;99308.69;5055848;28;20128;-61
2022/11/06 06:43:12;;;;;;;0.98;0.70;;;;;;;24.13;nan;99305.09;5061007;28;20048;-59
2022/11/06 06:45:37;;;;;;;1.02;0.70;;;;;;;24.10;nan;99297.53;5069448;28;20127;-60
2022/11/06 06:48:04;;;;;;;1.35;0.77;;;;;;;24.12;nan;99301.50;5070541;28;20535;-60
2022/11/06 06:50:29;;;;;;;1.25;0.70;;;;;;;24.12;nan;99298.72;5071085;28;20041;-64
2022/11/06 06:52:58;;;;;;;0.95;0.60;;;;;;;24.13;nan;99302.31;5069505;28;20055;-64
2022/11/06 06:55:24;;;;;;;1.13;0.73;;;;;;;24.14;nan;99301.09;5056513;28;20068;-64
2022/11/06 06:58:00;;;;;;;1.27;0.73;;;;;;;24.12;nan;99300.72;5056893;28;20044;-64
2022/11/06 07:00:26;;;;;;;1.10;0.70;;;;;;;24.13;nan;99305.09;5036929;28;20041;-64
2022/11/06 07:02:51;;;;;;;1.13;0.70;;;;;;;24.12;nan;99307.09;5053920;28;20051;-63
2022/11/06 07:05:17;;;;;;;1.20;0.80;;;;;;;24.10;nan;99303.91;5056578;28;20120;-61
2022/11/06 07:07:43;;;;;;;0.57;0.47;;;;;;;24.13;nan;99313.50;5066971;28;20515;-64
2022/11/06 07:10:08;;;;;;;1.15;0.70;;;;;;;24.13;nan;99307.91;5070501;28;20055;-64
2022/11/06 07:12:34;;;;;;;1.23;0.77;;;;;;;24.16;nan;99307.13;5070719;28;20397;-64
2022/11/06 07:14:59;;;;;;;0.98;0.70;;;;;;;24.19;nan;99308.31;5070467;28;20374;-64
2022/11/06 07:17:24;;;;;;;1.15;0.63;;;;;;;24.19;nan;99311.09;5070738;28;20040;-64
2022/11/06 07:19:50;;;;;;;1.00;0.77;;;;;;;24.17;nan;99312.31;5070374;28;20484;-64
2022/11/06 07:22:15;;;;;;;1.52;0.80;;;;;;;24.17;nan;99315.09;5062711;28;20094;-61
2022/11/06 07:24:41;;;;;;;1.25;0.80;;;;;;;24.16;nan;99316.28;5046595;28;20568;-64
2022/11/06 07:27:06;;;;;;;0.95;0.60;;;;;;;24.17;nan;99317.88;5065416;28;20047;-61
2022/11/06 07:29:31;;;;;;;1.02;0.70;;;;;;;24.16;nan;99319.09;5070144;28;20485;-64
2022/11/06 07:31:57;;;;;;;1.23;0.73;;;;;;;24.17;nan;99320.69;5070398;28;20428;-61
2022/11/06 07:34:22;;;;;;;1.30;0.80;;;;;;;24.16;nan;99321.88;5070188;28;20053;-64
2022/11/06 07:36:49;;;;;;;1.30;0.80;;;;;;;24.14;nan;99315.88;5059964;28;20034;-61
2022/11/06 07:39:14;;;;;;;1.33;0.70;;;;;;;24.16;nan;99324.69;5052626;28;20047;-61
2022/11/06 07:41:40;;;;;;;1.00;0.80;;;;;;;24.17;nan;99319.88;5036842;28;20049;-64
2022/11/06 07:44:05;;;;;;;0.77;0.60;;;;;;;24.18;nan;99315.88;5032739;28;20128;-64
2022/11/06 07:46:30;;;;;;;1.13;0.70;;;;;;;24.17;nan;99315.09;5044799;28;20037;-61
2022/11/06 07:48:56;;;;;;;1.30;0.80;;;;;;;24.17;nan;99303.13;5063678;28;20037;-61
2022/11/06 07:51:22;;;;;;;1.73;1.02;;;;;;;24.14;nan;99299.13;5069088;28;20052;-61
2022/11/06 07:53:47;;;;;;;1.20;0.82;;;;;;;24.17;nan;99303.91;5070255;28;20052;-61
2022/11/06 07:56:14;;;;;;;0.80;0.73;;;;;;;24.16;nan;99302.31;5068139;28;20040;-64
2022/11/06 07:58:39;;;;;;;1.10;0.65;;;;;;;24.17;nan;99297.53;5044665;28;20481;-61
2022/11/06 08:01:05;;;;;;;1.02;0.70;;;;;;;24.17;nan;99291.94;5045332;28;20056;-63
2022/11/06 08:03:30;;;;;;;1.38;0.82;;;;;;;24.17;nan;99289.16;5055209;28;20277;-60
2022/11/06 08:05:57;;;;;;;1.13;0.73;;;;;;;24.20;nan;99301.50;5065519;28;20044;-60
2022/11/06 08:08:23;;;;;;;0.93;0.70;;;;;;;24.17;nan;99294.75;5068184;28;20059;-60
2022/11/06 08:10:52;;;;;;;0.80;0.60;;;;;;;24.18;nan;99293.53;5065862;28;20048;-64
2022/11/06 08:13:18;;;;;;;0.93;0.80;;;;;;;24.19;nan;99295.13;5056930;28;20048;-63
2022/11/06 08:15:43;;;;;;;1.02;0.73;;;;;;;24.18;nan;99293.53;5086284;28;20040;-60
2022/11/06 08:18:10;;;;;;;1.52;0.88;;;;;;;24.20;nan;99298.72;5073916;28;20082;-63
2022/11/06 08:20:37;;;;;;;0.70;0.60;;;;;;;24.19;nan;99283.16;5076191;28;20167;-63
2022/11/06 08:23:07;;;;;;;1.50;0.90;;;;;;;24.19;nan;99286.75;5080619;28;20052;-61
2022/11/06 08:25:33;;;;;;;1.50;0.80;;;;;;;24.17;nan;99286.34;5087303;28;20052;-64
2022/11/06 08:28:00;;;;;;;1.27;0.80;;;;;;;24.21;nan;99289.94;5090127;28;20039;-64
2022/11/06 08:30:28;;;;;;;1.50;0.90;;;;;;;24.19;nan;99277.56;5089601;28;20059;-64
2022/11/06 08:32:54;;;;;;;1.45;0.80;;;;;;;24.22;nan;99279.53;5090014;28;20556;-64
2022/11/06 08:35:20;;;;;;;1.27;0.80;;;;;;;24.22;nan;99265.56;5089621;28;20052;-61
2022/11/06 08:37:45;;;;;;;1.08;0.80;;;;;;;24.21;nan;99270.34;5070009;28;20110;-65
2022/11/06 08:40:11;;;;;;;1.33;0.90;;;;;;;24.22;nan;99276.75;5069319;28;20428;-62
2022/11/06 08:42:36;;;;;;;1.15;0.77;;;;;;;24.20;nan;99274.34;5076144;28;20162;-62
2022/11/06 08:45:02;;;;;;;0.93;0.68;;;;;;;24.22;nan;99266.38;5071681;28;20103;-61
2022/11/06 08:47:27;;;;;;;1.30;0.80;;;;;;;24.22;nan;99268.38;5080634;28;20048;-64
2022/11/06 08:49:54;;;;;;;0.85;0.60;;;;;;;24.23;nan;99262.41;5084745;28;20346;-65
2022/11/06 08:52:23;;;;;;;1.30;0.70;;;;;;;24.24;nan;99257.59;5069324;28;20068;-62
2022/11/06 08:54:48;;;;;;;1.27;0.80;;;;;;;24.23;nan;99251.22;5082025;28;20044;-60
2022/11/06 08:57:14;;;;;;;1.38;0.80;;;;;;;24.23;nan;99254.00;5086500;28;20042;-60
2022/11/06 08:59:39;;;;;;;1.52;0.90;;;;;;;24.23;nan;99245.63;5089059;28;20127;-60
2022/11/06 09:02:05;;;;;;;1.10;0.65;;;;;;;24.25;nan;99236.84;5083622;28;20048;-64
2022/11/06 09:04:32;;;;;;;1.45;0.85;;;;;;;24.24;nan;99244.41;5083528;28;20722;-65
2022/11/06 09:06:57;;;;;;;1.05;0.70;;;;;;;24.24;nan;99238.84;5076645;28;20123;-64
2022/11/06 09:09:30;;;;;;;2.58;0.90;;;;;;;24.23;nan;99245.63;5072910;28;20486;-60
2022/11/06 09:11:56;;;;;;;1.48;0.85;;;;;;;24.25;nan;99243.22;5079692;28;20051;-62
2022/11/06 09:14:22;;;;;;;1.05;0.73;;;;;;;24.26;nan;99249.59;5078341;28;20048;-61
2022/11/06 09:16:49;;;;;;;1.05;0.73;;;;;;;24.26;nan;99242.00;5088951;28;20086;-61
2022/11/06 09:19:16;;;;;;;1.00;0.70;;;;;;;24.26;nan;99244.00;5088890;28;20400;-64
2022/11/06 09:21:42;;;;;;;1.13;0.63;;;;;;;24.26;nan;99239.22;5088917;28;20032;-64
2022/11/06 09:24:07;;;;;;;0.90;0.60;;;;;;;24.27;nan;99234.41;5091307;28;20040;-61
2022/11/06 09:26:33;;;;;;;0.93;0.60;;;;;;;24.25;nan;99231.25;5091010;28;20032;-64
2022/11/06 09:28:58;;;;;;;1.10;0.68;;;;;;;24.28;nan;99233.22;5079508;28;20043;-64
2022/11/06 09:31:24;;;;;;;1.10;0.70;;;;;;;24.29;nan;99243.19;5092607;28;20097;-61
2022/11/06 09:33:50;;;;;;;0.95;0.60;;;;;;;24.29;nan;99232.00;5092684;28;20563;-61
2022/11/06 09:36:18;;;;;;;1.10;0.73;;;;;;;24.29;nan;99232.00;5076833;28;20036;-61
2022/11/06 09:38:43;;;;;;;0.82;0.63;;;;;;;24.29;nan;99237.59;5074327;28;20068;-61
2022/11/06 09:41:34;;;;;;;1.50;0.90;;;;;;;24.30;nan;99233.63;5074501;28;20041;-61
2022/11/06 09:44:12;;;;;;;0.90;0.70;;;;;;;24.30;nan;99236.44;5074554;28;20045;-62
2022/11/06 09:46:46;;;;;;;0.80;0.60;;;;;;;24.31;nan;99236.03;5076569;28;20130;-61
2022/11/06 09:49:45;;;;;;;0.70;0.60;;;;;;;24.30;nan;99231.63;5092581;28;20044;-61
2022/11/06 09:52:19;;;;;;;1.20;0.70;;;;;;;24.32;nan;99231.22;5067122;28;20055;-61
2022/11/06 09:54:55;;;;;;;1.08;0.70;;;;;;;24.32;nan;99231.22;5092308;28;20070;-61
2022/11/06 09:57:28;;;;;;;0.90;0.63;;;;;;;24.32;nan;99220.84;5092202;28;20088;-64
2022/11/06 09:59:55;;;;;;;1.10;0.60;;;;;;;24.31;nan;99219.25;5092433;28;20506;-64
2022/11/06 10:02:36;;;;;;;1.05;0.70;;;;;;;24.32;nan;99222.84;5092126;28;20488;-64
2022/11/06 10:05:17;;;;;;;1.33;0.80;;;;;;;24.33;nan;99224.47;5092140;28;20052;-64
2022/11/06 10:07:44;;;;;;;1.08;0.70;;;;;;;24.33;nan;99222.47;5092081;28;20055;-61
2022/11/06 10:10:16;;;;;;;0.90;0.60;;;;;;;24.33;nan;99213.28;5091925;28;20044;-64
2022/11/06 10:13:18;;;;;;;0.90;0.70;;;;;;;24.34;nan;99215.66;5092129;28;20051;-64
2022/11/06 10:15:46;;;;;;;1.13;0.60;;;;;;;24.35;nan;99216.47;5089940;28;20180;-64
2022/11/06 10:18:31;;;;;;;1.20;0.70;;;;;;;24.33;nan;99211.28;5077075;28;20049;-61
2022/11/06 10:21:23;;;;;;;0.73;0.60;;;;;;;24.35;nan;99206.06;5087050;28;20474;-64
2022/11/06 10:24:04;;;;;;;0.60;0.55;;;;;;;24.36;nan;99215.25;5082420;28;20064;-61
2022/11/06 10:26:40;;;;;;;1.05;0.68;;;;;;;24.36;nan;99204.91;5091640;28;20028;-61
2022/11/06 10:29:33;;;;;;;0.77;0.50;;;;;;;24.36;nan;99198.47;5092117;28;20044;-61
2022/11/06 10:31:58;;;;;;;;;;;;;;;24.43;nan;99204.88;5078419;28;20140;-61
2022/11/06 10:34:30;;;;;;;0.53;0.50;;;;;;;24.40;nan;99207.66;5082776;28;20010;-61
2022/11/06 10:37:03;;;;;;;1.07;0.70;;;;;;;24.39;nan;99197.69;5078135;28;20032;-61
2022/11/06 10:39:34;;;;;;;1.30;0.80;;;;;;;24.38;nan;99196.91;5088633;28;20282;-61
2022/11/06 10:42:13;;;;;;;0.73;0.60;;;;;;;24.35;nan;99194.88;5091815;28;20086;-61
2022/11/06 10:44:51;;;;;;;0.80;0.60;;;;;;;24.39;nan;99197.69;5091474;28;20048;-61
2022/11/06 10:47:21;;;;;;;0.90;0.63;;;;;;;24.40;nan;99188.91;5091675;28;20105;-64
2022/11/06 10:49:56;;;;;;;0.82;0.65;;;;;;;24.40;nan;99188.91;5090064;28;20049;-64
2022/11/06 10:52:32;;;;;;;1.20;0.70;;;;;;;24.40;nan;99188.91;5091241;28;20170;-64
2022/11/06 10:55:19;;;;;;;0.90;0.60;;;;;;;24.43;nan;99187.28;5091280;28;20040;-61
2022/11/06 10:58:02;;;;;;;1.23;0.70;;;;;;;24.43;nan;99176.09;5091492;28;20040;-61
2022/11/06 11:00:28;;;;;;;0.60;0.40;;;;;;;24.44;nan;99174.91;5091289;28;20396;-64
2022/11/06 11:03:05;;;;;;;0.80;0.50;;;;;;;24.45;nan;99172.91;5091158;28;20048;-64
2022/11/06 11:05:39;;;;;;;0.85;0.60;;;;;;;24.45;nan;99168.13;5091461;28;20048;-61
2022/11/06 11:08:06;;;;;;;0.50;0.40;;;;;;;24.44;nan;99155.34;5091174;28;20040;-64
2022/11/06 11:10:34;;;;;;;0.85;0.40;;;;;;;24.44;nan;99152.53;5091137;28;20036;-64
2022/11/06 11:13:02;;;;;;;0.82;0.50;;;;;;;24.45;nan;99140.16;5088933;28;20048;-64
2022/11/06 11:15:37;;;;;;;0.88;0.60;;;;;;;24.48;nan;99142.13;5072925;28;20036;-61
2022/11/06 11:18:06;;;;;;;0.75;0.50;;;;;;;24.49;nan;99123.34;5085747;28;20178;-61
2022/11/06 11:20:33;;;;;;;0.80;0.55;;;;;;;24.50;nan;99124.94;5074151;28;20131;-64
2022/11/06 11:23:17;;;;;;;0.75;0.60;;;;;;;24.49;nan;99121.34;5091038;28;20484;-61
2022/11/06 11:25:46;;;;;;;0.90;0.50;;;;;;;24.48;nan;99118.97;5090755;28;20555;-61
2022/11/06 11:28:33;;;;;;;0.85;0.45;;;;;;;24.48;nan;99103.00;5091072;28;20062;-61
2022/11/06 11:31:08;;;;;;;1.05;0.60;;;;;;;24.50;nan;99094.97;5090709;28;20063;-64
2022/11/06 11:33:35;;;;;;;0.95;0.63;;;;;;;24.50;nan;99094.97;5091127;28;20036;-64
2022/11/06 11:36:03;;;;;;;0.80;0.60;;;;;;;24.51;nan;99088.22;5090777;28;20119;-64
2022/11/06 11:38:29;;;;;;;1.20;0.68;;;;;;;24.49;nan;99076.63;5090851;28;20412;-61
2022/11/06 11:41:20;;;;;;;0.60;0.40;;;;;;;24.52;nan;99072.22;5090576;28;20036;-64
2022/11/06 11:44:02;;;;;;;0.80;0.60;;;;;;;24.50;nan;99075.41;5090717;28;20138;-62
2022/11/06 11:46:28;;;;;;;0.47;0.47;;;;;;;24.53;nan;99071.81;5090758;28;20079;-64
2022/11/06 11:48:56;;;;;;;0.88;0.60;;;;;;;24.53;nan;99074.59;5090791;28;20040;-64
2022/11/06 11:51:27;;;;;;;0.52;0.40;;;;;;;24.52;nan;99059.03;5082473;28;20048;-64
2022/11/06 11:53:56;;;;;;;0.73;0.55;;;;;;;24.52;nan;99056.25;5076758;28;20050;-64
2022/11/06 11:56:22;;;;;;;1.08;0.60;;;;;;;24.54;nan;99059.41;5090597;28;20048;-64
2022/11/06 11:58:53;;;;;;;0.70;0.50;;;;;;;24.53;nan;99060.63;5070461;28;20036;-61
2022/11/06 12:01:35;;;;;;;0.55;0.50;;;;;;;24.53;nan;99057.03;5087001;28;20572;-64
2022/11/06 12:04:08;;;;;;;1.20;0.60;;;;;;;24.53;nan;99051.44;5090364;28;20036;-64
2022/11/06 12:06:34;;;;;;;0.52;0.45;;;;;;;24.53;nan;99055.03;5090226;28;20110;-61
2022/11/06 12:09:00;;;;;;;0.63;0.50;;;;;;;24.53;nan;99054.25;5090244;28;20052;-64
2022/11/06 12:11:28;;;;;;;1.08;0.55;;;;;;;24.51;nan;99051.84;5090184;28;20044;-61
2022/11/06 12:14:27;;;;;;;0.85;0.60;;;;;;;24.53;nan;99035.47;5090147;28;20044;-61
2022/11/06 12:17:01;;;;;;;0.50;0.40;;;;;;;24.51;nan;99029.50;5090082;28;20499;-64